Weather at Waterkloof Air Force Base

Public forecast

Using degrees Celsius for public forecast. Weather courtesy of forecast.io.

Current aviation weather report (METAR) for Waterkloof Air Force Base

Retrieved 2020/10/28 22:00 UTC (45 minutes ago):

FAWK 282200Z AUTO 06007KT //// // ////// 21/08 Q1024

Aviation forecast (TAF) for Waterkloof Air Force Base

Forecast is more than 12 hours old.

Retrieved 2019/01/10 07:00 UTC (2 years ago):

TAF FAWK 100800Z 1007/1018 33007KT 9999 SCT035 PROB30 TEMPO 1007/1009 -TSRA FEW035CB BECMG 1010/1012 CAVOK PROB30 TEMPO 1016/1018 VRB03KT SCT030 FEW035TCU TX30/1013Z TN25/1018Z